Monday, August 20, 2018, 1:15 AM EDT
Back to Local

KDDH, Bennington Morse State Airport

Location: Bennington, VT, United States Lat: 42.883
Local Time: 1:15 AM EDT ( 5:15 GMT) Lon: -73.25
Time Zone: US/Eastern Elev: 826 ft

Show me the last for .
Show Decoded

2018-08-20 00:54 METAR KDDH 200454Z AUTO 13003KT 10SM CLR 17/13 A3015 RMK AO2 SLP203 T01720133
                 402670167 =
2018-08-19 23:54 METAR KDDH 200354Z AUTO 09003KT 10SM CLR 17/13 A3015 RMK AO2 SLP204 T01720133 =
2018-08-19 22:54 METAR KDDH 200254Z AUTO 11007KT 10SM CLR 19/13 A3013 RMK AO2 SLP200 T01890133
                 51013 =
2018-08-19 21:54 METAR KDDH 200154Z AUTO 12005KT 10SM CLR 18/14 A3012 RMK AO2 SLP196 T01830139 =
2018-08-19 20:54 METAR KDDH 200054Z AUTO 14006KT 10SM CLR 18/15 A3011 RMK AO2 SLP193 T01780150 =
2018-08-19 19:54 METAR KDDH 192354Z AUTO 00000KT 10SM CLR 18/16 A3010 RMK AO2 SLP188 T01830161
                 10267 20183 51014 =
2018-08-19 18:54 METAR KDDH 192254Z AUTO 00000KT 10SM CLR 22/17 A3008 RMK AO2 SLP183 T02170172 =
2018-08-19 17:54 METAR KDDH 192154Z AUTO 00000KT 10SM CLR 23/15 A3007 RMK AO2 SLP178 T02330150 =
2018-08-19 16:54 METAR KDDH 192054Z AUTO VRB04KT 10SM CLR 25/14 A3006 RMK AO2 SLP173 T02500144
                 53003 =
2018-08-19 15:54 METAR KDDH 191954Z AUTO 12005KT 10SM SCT055 26/14 A3004 RMK AO2 SLP168 T02610144
                 =
2018-08-19 14:54 METAR KDDH 191854Z AUTO 12005KT 10SM FEW050 25/14 A3004 RMK AO2 SLP169 T02500139
                 =
2018-08-19 13:54 METAR KDDH 191754Z AUTO 10SM CLR 26/14 A3005 RMK AO2 SLP170 T02560139 10261
                 20200 57003 =
2018-08-19 12:54 METAR KDDH 191654Z AUTO VRB06KT 10SM CLR 26/15 A3005 RMK AO2 SLP172 T02560150 =
2018-08-19 11:54 METAR KDDH 191554Z AUTO 12006KT 10SM CLR 25/14 A3005 RMK AO2 SLP171 T02500139 =
2018-08-19 10:54 METAR KDDH 191454Z AUTO 10004KT 10SM CLR 23/13 A3006 RMK AO2 SLP173 T02330128
                 51011 =
2018-08-19 09:54 METAR KDDH 191354Z AUTO VRB03KT 10SM CLR 23/14 A3005 RMK AO2 SLP171 T02280139 =
2018-08-19 08:54 METAR KDDH 191254Z AUTO 00000KT 10SM CLR 21/14 A3004 RMK AO2 SLP168 T02060144 =
2018-08-19 07:54 METAR KDDH 191154Z AUTO 00000KT 10SM CLR 20/14 A3002 RMK AO2 SLP163 70002
                 T02000139 10200 20167 51018 =
2018-08-19 06:54 METAR KDDH 191054Z AUTO 00000KT 10SM CLR 17/14 A3001 RMK AO2 SLP158 T01720139 =
2018-08-19 05:54 METAR KDDH 190954Z AUTO 08004KT 10SM FEW043 BKN060 17/13 A2999 RMK AO2 SLP151
                 T01720133 =
2018-08-19 04:54 METAR KDDH 190854Z AUTO 09005KT 10SM SCT042 OVC060 19/13 A2997 RMK AO2 SLP144
                 T01940133 53007 =
2018-08-19 03:54 METAR KDDH 190754Z AUTO 06004KT 10SM BKN030 BKN040 OVC049 20/14 A2996 RMK AO2
                 SLP141 T02000139 =
2018-08-19 02:54 METAR KDDH 190654Z AUTO 00000KT 10SM OVC030 19/14 A2995 RMK AO2 SLP138 T01940144
                 =
2018-08-19 02:31 METAR KDDH 190631Z AUTO VRB03KT 10SM OVC030 19/16 A2995 RMK AO2 T01940156 =
2018-08-19 01:54 METAR KDDH 190554Z AUTO 00000KT 10SM OVC023 19/16 A2995 RMK AO2 SLP137 T01890161
                 10194 20183 53006 =

Support USWX by starting your Amazon purchase here.